createdAt,value
2022-10-05T00:00:24.344Z,10.15
2022-10-05T00:05:53.821Z,10.13
2022-10-05T00:11:04.498Z,10.13
2022-10-05T00:16:34.350Z,10.12
2022-10-05T00:22:03.770Z,10.12
2022-10-05T00:27:39.746Z,10.10
2022-10-05T00:32:56.028Z,10.12
2022-10-05T00:38:28.571Z,10.11
2022-10-05T00:44:32.132Z,10.11
2022-10-05T00:50:53.106Z,10.12
2022-10-05T00:57:27.771Z,10.12
2022-10-05T01:03:01.473Z,10.12
2022-10-05T01:08:58.573Z,10.13
2022-10-05T01:14:47.127Z,10.14
2022-10-05T01:20:33.988Z,10.15
2022-10-05T01:26:55.643Z,10.15
2022-10-05T01:32:56.275Z,10.16
2022-10-05T01:38:54.150Z,10.15
2022-10-05T01:44:51.707Z,10.17
2022-10-05T01:51:00.828Z,10.16
2022-10-05T02:07:32.283Z,10.19
2022-10-05T02:12:37.788Z,10.22
2022-10-05T02:18:03.691Z,10.23
2022-10-05T02:23:12.869Z,10.22
2022-10-05T02:28:23.995Z,10.20
2022-10-05T02:33:31.456Z,10.19
2022-10-05T02:38:49.890Z,10.19
2022-10-05T02:44:20.623Z,10.15
2022-10-05T02:49:29.870Z,10.13
2022-10-05T02:55:21.269Z,10.13
2022-10-05T03:00:28.964Z,10.15
2022-10-05T03:05:47.156Z,10.17
2022-10-05T03:11:33.234Z,10.19
2022-10-05T03:17:04.119Z,10.20
2022-10-05T03:22:22.915Z,10.21
2022-10-05T03:27:53.252Z,10.19
2022-10-05T03:33:06.837Z,10.19
2022-10-05T03:38:17.268Z,10.19
2022-10-05T03:43:34.839Z,10.21
2022-10-05T03:48:48.011Z,10.22
2022-10-05T03:54:00.186Z,10.24
2022-10-05T03:59:22.926Z,10.27
2022-10-05T04:05:14.331Z,10.27
2022-10-05T04:11:02.743Z,10.30
2022-10-05T04:16:56.806Z,10.31
2022-10-05T04:23:03.735Z,10.31
2022-10-05T04:29:02.325Z,10.30
2022-10-05T04:34:26.108Z,10.31
2022-10-05T04:39:31.936Z,10.34
2022-10-05T04:44:40.742Z,10.40
2022-10-05T04:50:09.564Z,10.48
2022-10-05T04:55:32.115Z,10.50
2022-10-05T05:01:10.684Z,10.53
2022-10-05T05:06:43.322Z,10.57
2022-10-05T05:12:08.471Z,10.63
2022-10-05T05:17:33.291Z,10.65
2022-10-05T05:22:59.335Z,10.68
2022-10-05T05:28:30.216Z,10.75
2022-10-05T05:33:33.599Z,10.82
2022-10-05T05:39:06.711Z,10.90
2022-10-05T05:44:32.507Z,10.99
2022-10-05T05:50:08.625Z,11.10
2022-10-05T05:55:30.321Z,11.20
2022-10-05T06:00:50.375Z,11.34
2022-10-05T06:06:04.845Z,11.47
2022-10-05T06:11:24.193Z,11.55
2022-10-05T06:16:27.549Z,11.61
2022-10-05T06:21:39.065Z,11.68
2022-10-05T06:26:54.539Z,11.78
2022-10-05T06:32:15.926Z,11.82
2022-10-05T06:37:56.140Z,11.88
2022-10-05T06:43:02.481Z,11.99
2022-10-05T06:48:32.609Z,12.17
2022-10-05T06:54:12.690Z,12.38
2022-10-05T06:59:18.649Z,12.61
2022-10-05T07:04:39.576Z,12.85
2022-10-05T07:09:49.012Z,13.11
2022-10-05T07:15:40.798Z,13.32
2022-10-05T07:21:03.752Z,13.49
2022-10-05T07:26:10.959Z,13.56
2022-10-05T07:31:27.822Z,13.57
2022-10-05T07:36:55.030Z,13.59
2022-10-05T07:42:10.904Z,13.69
2022-10-05T07:47:37.157Z,13.78
2022-10-05T07:52:47.188Z,13.88
2022-10-05T07:58:10.312Z,14.07
2022-10-05T08:03:41.208Z,14.32
2022-10-05T08:08:52.844Z,14.53
2022-10-05T08:14:24.835Z,14.60
2022-10-05T08:19:41.019Z,14.51
2022-10-05T08:25:06.614Z,14.40
2022-10-05T08:30:13.585Z,14.46
2022-10-05T08:35:45.521Z,14.63
2022-10-05T08:41:21.155Z,14.94
2022-10-05T08:46:48.013Z,15.09
2022-10-05T08:51:57.826Z,14.95
2022-10-05T08:57:39.831Z,14.86
2022-10-05T09:03:20.833Z,14.88
2022-10-05T09:08:45.873Z,14.88
2022-10-05T09:14:04.408Z,14.85
2022-10-05T09:19:45.083Z,14.89
2022-10-05T09:24:54.404Z,15.04
2022-10-05T09:30:06.702Z,15.22
2022-10-05T09:35:35.297Z,15.37
2022-10-05T09:40:53.704Z,15.64
2022-10-05T09:46:24.949Z,15.90
2022-10-05T09:51:53.421Z,16.12
2022-10-05T09:57:28.948Z,16.34
2022-10-05T10:02:57.286Z,16.44
2022-10-05T10:08:20.679Z,16.58
2022-10-05T10:13:53.820Z,16.68
2022-10-05T10:19:14.693Z,16.96
2022-10-05T10:24:38.386Z,17.09
2022-10-05T10:30:13.682Z,17.29
2022-10-05T10:35:35.100Z,17.43
2022-10-05T10:40:54.695Z,17.66
2022-10-05T10:46:15.927Z,17.90
2022-10-05T10:52:02.827Z,17.94
2022-10-05T10:57:14.144Z,17.94
2022-10-05T11:02:45.565Z,17.92
2022-10-05T11:08:03.015Z,18.04
2022-10-05T11:13:25.839Z,18.27
2022-10-05T11:19:07.304Z,18.52
2022-10-05T11:24:42.019Z,18.75
2022-10-05T11:29:54.556Z,18.78
2022-10-05T11:35:15.497Z,18.80
2022-10-05T11:41:16.201Z,18.85
2022-10-05T11:46:41.455Z,19.03
2022-10-05T11:52:11.584Z,19.30
2022-10-05T11:57:26.420Z,19.34
2022-10-05T12:02:57.264Z,19.30
2022-10-05T12:08:19.220Z,19.09
2022-10-05T12:13:37.654Z,18.98
2022-10-05T12:19:03.356Z,18.94
2022-10-05T12:24:26.815Z,18.89
2022-10-05T12:29:43.330Z,18.95
2022-10-05T12:35:01.665Z,18.95
2022-10-05T12:40:32.754Z,19.03
2022-10-05T12:45:59.976Z,19.17
2022-10-05T12:51:09.170Z,19.23
2022-10-05T12:56:45.064Z,18.99
2022-10-05T13:02:15.678Z,18.94
2022-10-05T13:07:34.221Z,18.92
2022-10-05T13:13:02.062Z,19.02
2022-10-05T13:18:27.228Z,19.07
2022-10-05T13:23:45.099Z,19.09
2022-10-05T13:29:18.285Z,19.03
2022-10-05T13:34:25.523Z,19.01
2022-10-05T13:39:47.771Z,19.00
2022-10-05T13:44:55.765Z,18.97
2022-10-05T13:50:17.512Z,18.91
2022-10-05T13:55:30.677Z,18.82
2022-10-05T14:00:43.960Z,18.63
2022-10-05T14:05:57.668Z,18.58
2022-10-05T14:11:29.132Z,18.51
2022-10-05T14:16:33.929Z,18.46
2022-10-05T14:22:08.126Z,18.39
2022-10-05T14:27:31.241Z,18.29
2022-10-05T14:33:02.060Z,18.25
2022-10-05T14:38:32.250Z,18.39
2022-10-05T14:43:37.107Z,18.82
2022-10-05T14:48:45.118Z,18.96
2022-10-05T14:53:58.789Z,18.86
2022-10-05T14:59:37.553Z,18.72
2022-10-05T15:04:47.383Z,18.41
2022-10-05T15:10:05.869Z,18.08
2022-10-05T15:15:32.978Z,17.78
2022-10-05T15:20:54.391Z,17.54
2022-10-05T15:26:13.590Z,17.34
2022-10-05T15:31:55.199Z,17.23
2022-10-05T15:37:08.850Z,17.03
2022-10-05T15:42:17.086Z,16.82
2022-10-05T15:47:46.428Z,16.63
2022-10-05T15:52:59.724Z,16.32
2022-10-05T15:58:31.503Z,16.02
2022-10-05T16:03:47.149Z,15.73
2022-10-05T16:09:27.877Z,15.42
2022-10-05T16:14:55.249Z,15.03
2022-10-05T16:20:35.972Z,14.78
2022-10-05T16:25:47.424Z,14.58
2022-10-05T16:31:04.732Z,14.38
2022-10-05T16:36:53.360Z,14.16
2022-10-05T16:42:26.261Z,13.94
2022-10-05T16:47:41.558Z,13.76
2022-10-05T16:52:51.419Z,13.64
2022-10-05T16:57:57.110Z,13.53
2022-10-05T17:03:16.061Z,13.46
2022-10-05T17:08:45.794Z,13.41
2022-10-05T17:13:58.019Z,13.35
2022-10-05T17:19:19.856Z,13.31
2022-10-05T17:25:00.549Z,13.25
2022-10-05T17:30:22.214Z,13.19
2022-10-05T17:36:01.054Z,13.09
2022-10-05T17:41:10.145Z,12.98
2022-10-05T17:46:36.398Z,12.92
2022-10-05T17:51:58.371Z,12.86
2022-10-05T17:57:04.874Z,12.81
2022-10-05T18:02:20.099Z,12.79
2022-10-05T18:07:24.966Z,12.74
2022-10-05T18:12:45.925Z,12.70
2022-10-05T18:17:59.715Z,12.69
2022-10-05T18:23:10.011Z,12.68
2022-10-05T18:28:23.405Z,12.69
2022-10-05T18:34:01.218Z,12.66
2022-10-05T18:39:13.971Z,12.64
2022-10-05T18:44:46.454Z,12.65
2022-10-05T18:50:04.875Z,12.64
2022-10-05T18:55:33.033Z,12.64
2022-10-05T19:00:59.556Z,12.60
2022-10-05T19:06:04.428Z,12.58
2022-10-05T19:11:23.593Z,12.54
2022-10-05T19:16:49.703Z,12.53
2022-10-05T19:22:11.581Z,12.52
2022-10-05T19:27:26.705Z,12.52
2022-10-05T19:32:51.467Z,12.51
2022-10-05T19:38:00.981Z,12.45
2022-10-05T19:43:18.998Z,12.42
2022-10-05T19:48:38.214Z,12.41
2022-10-05T19:53:47.204Z,12.43
2022-10-05T19:58:52.228Z,12.41
2022-10-05T20:03:58.349Z,12.45
2022-10-05T20:09:19.785Z,12.50
2022-10-05T20:14:31.761Z,12.51
2022-10-05T20:19:56.716Z,12.56
2022-10-05T20:25:31.059Z,12.54
2022-10-05T20:30:34.464Z,12.56
2022-10-05T20:35:37.674Z,12.57
2022-10-05T20:40:40.984Z,12.59
2022-10-05T20:45:44.192Z,12.58
2022-10-05T20:50:47.717Z,12.57
2022-10-05T20:55:50.907Z,12.55
2022-10-05T21:01:12.924Z,12.52
2022-10-05T21:06:18.194Z,12.51
2022-10-05T21:11:21.739Z,12.48
2022-10-05T21:16:25.271Z,12.45
2022-10-05T21:21:28.873Z,12.42
2022-10-05T21:26:33.110Z,12.40
2022-10-05T21:31:37.115Z,12.37
2022-10-05T21:36:40.549Z,12.34
2022-10-05T21:41:43.856Z,12.32
2022-10-05T21:46:48.568Z,12.29
2022-10-05T21:51:54.046Z,12.26
2022-10-05T21:56:59.017Z,12.22
2022-10-05T22:02:02.904Z,12.23
2022-10-05T22:07:20.624Z,12.20
2022-10-05T22:12:24.717Z,12.18
2022-10-05T22:17:31.442Z,12.18
2022-10-05T22:22:34.834Z,12.18
2022-10-05T22:27:38.111Z,12.18
2022-10-05T22:32:42.888Z,12.16
2022-10-05T22:37:46.498Z,12.13
2022-10-05T22:42:49.987Z,12.10
2022-10-05T22:47:53.323Z,12.10
2022-10-05T22:52:56.486Z,12.08
2022-10-05T22:58:02.096Z,12.05
2022-10-05T23:03:05.511Z,11.99
2022-10-05T23:08:08.691Z,11.96
2022-10-05T23:13:11.892Z,11.95
2022-10-05T23:18:16.908Z,11.94
2022-10-05T23:23:20.395Z,11.94
2022-10-05T23:28:23.764Z,11.96
2022-10-05T23:33:27.798Z,11.94
2022-10-05T23:38:31.517Z,11.87
2022-10-05T23:43:35.056Z,11.81
2022-10-05T23:48:38.577Z,11.77
2022-10-05T23:53:42.193Z,11.72
2022-10-05T23:58:45.502Z,11.67
